sensor_id;sensor_type;location;lat;lon;timestamp;P1;durP1;ratioP1;P2;durP2;ratioP2
59516;SDS011;45342;42.662;27.718;2023-12-22T00:00:11;5.70;;;4.50;;
59516;SDS011;45342;42.662;27.718;2023-12-22T00:02:37;5.85;;;4.55;;
59516;SDS011;45342;42.662;27.718;2023-12-22T00:05:02;5.85;;;4.38;;
59516;SDS011;45342;42.662;27.718;2023-12-22T00:07:28;5.10;;;4.03;;
59516;SDS011;45342;42.662;27.718;2023-12-22T00:09:54;5.40;;;4.03;;
59516;SDS011;45342;42.662;27.718;2023-12-22T00:12:20;6.10;;;4.53;;
59516;SDS011;45342;42.662;27.718;2023-12-22T00:14:46;5.45;;;4.45;;
59516;SDS011;45342;42.662;27.718;2023-12-22T00:17:12;5.50;;;4.20;;
59516;SDS011;45342;42.662;27.718;2023-12-22T00:19:38;5.32;;;4.10;;
59516;SDS011;45342;42.662;27.718;2023-12-22T00:22:04;6.22;;;4.60;;
59516;SDS011;45342;42.662;27.718;2023-12-22T00:24:30;5.50;;;4.32;;
59516;SDS011;45342;42.662;27.718;2023-12-22T00:26:56;5.32;;;4.10;;
59516;SDS011;45342;42.662;27.718;2023-12-22T00:29:21;5.05;;;4.07;;
59516;SDS011;45342;42.662;27.718;2023-12-22T00:31:47;5.55;;;4.00;;
59516;SDS011;45342;42.662;27.718;2023-12-22T00:34:13;6.05;;;4.50;;
59516;SDS011;45342;42.662;27.718;2023-12-22T00:36:38;6.65;;;4.45;;
59516;SDS011;45342;42.662;27.718;2023-12-22T00:39:04;5.20;;;4.00;;
59516;SDS011;45342;42.662;27.718;2023-12-22T00:41:30;5.20;;;4.00;;
59516;SDS011;45342;42.662;27.718;2023-12-22T00:43:55;5.35;;;4.15;;
59516;SDS011;45342;42.662;27.718;2023-12-22T00:46:21;6.20;;;4.10;;
59516;SDS011;45342;42.662;27.718;2023-12-22T00:48:46;5.65;;;4.13;;
59516;SDS011;45342;42.662;27.718;2023-12-22T00:51:12;5.47;;;4.38;;
59516;SDS011;45342;42.662;27.718;2023-12-22T00:53:38;6.03;;;4.43;;
59516;SDS011;45342;42.662;27.718;2023-12-22T00:56:04;5.45;;;4.30;;
59516;SDS011;45342;42.662;27.718;2023-12-22T00:58:30;5.82;;;4.43;;
59516;SDS011;45342;42.662;27.718;2023-12-22T01:00:56;5.35;;;4.20;;
59516;SDS011;45342;42.662;27.718;2023-12-22T01:03:22;5.63;;;4.13;;
59516;SDS011;45342;42.662;27.718;2023-12-22T01:05:47;5.72;;;4.32;;
59516;SDS011;45342;42.662;27.718;2023-12-22T01:08:13;5.00;;;4.05;;
59516;SDS011;45342;42.662;27.718;2023-12-22T01:10:39;4.90;;;4.13;;
59516;SDS011;45342;42.662;27.718;2023-12-22T01:13:04;4.75;;;3.88;;
59516;SDS011;45342;42.662;27.718;2023-12-22T01:15:30;5.43;;;4.32;;
59516;SDS011;45342;42.662;27.718;2023-12-22T01:17:56;4.57;;;3.67;;
59516;SDS011;45342;42.662;27.718;2023-12-22T01:20:22;5.65;;;4.20;;
59516;SDS011;45342;42.662;27.718;2023-12-22T01:22:47;5.07;;;3.92;;
59516;SDS011;45342;42.662;27.718;2023-12-22T01:25:13;4.75;;;4.03;;
59516;SDS011;45342;42.662;27.718;2023-12-22T01:27:39;5.35;;;4.32;;
59516;SDS011;45342;42.662;27.718;2023-12-22T01:30:05;5.53;;;4.07;;
59516;SDS011;45342;42.662;27.718;2023-12-22T01:32:31;5.30;;;4.15;;
59516;SDS011;45342;42.662;27.718;2023-12-22T01:34:59;5.55;;;4.00;;
59516;SDS011;45342;42.662;27.718;2023-12-22T01:37:29;5.45;;;4.10;;
59516;SDS011;45342;42.662;27.718;2023-12-22T01:39:55;4.75;;;3.70;;
59516;SDS011;45342;42.662;27.718;2023-12-22T01:42:21;4.68;;;3.78;;
59516;SDS011;45342;42.662;27.718;2023-12-22T01:44:46;6.25;;;4.20;;
59516;SDS011;45342;42.662;27.718;2023-12-22T01:47:12;5.40;;;4.13;;
59516;SDS011;45342;42.662;27.718;2023-12-22T01:52:04;5.03;;;3.92;;
59516;SDS011;45342;42.662;27.718;2023-12-22T01:54:30;5.95;;;4.30;;
59516;SDS011;45342;42.662;27.718;2023-12-22T01:56:56;5.40;;;4.07;;
59516;SDS011;45342;42.662;27.718;2023-12-22T01:59:22;5.88;;;4.43;;
59516;SDS011;45342;42.662;27.718;2023-12-22T02:01:50;5.97;;;4.13;;
59516;SDS011;45342;42.662;27.718;2023-12-22T02:04:17;5.35;;;3.90;;
59516;SDS011;45342;42.662;27.718;2023-12-22T02:06:43;4.75;;;3.80;;
59516;SDS011;45342;42.662;27.718;2023-12-22T02:09:09;5.97;;;4.05;;
59516;SDS011;45342;42.662;27.718;2023-12-22T02:11:36;5.55;;;4.07;;
59516;SDS011;45342;42.662;27.718;2023-12-22T02:14:03;5.20;;;3.78;;
59516;SDS011;45342;42.662;27.718;2023-12-22T02:16:44;5.25;;;3.83;;
59516;SDS011;45342;42.662;27.718;2023-12-22T02:19:57;5.38;;;3.92;;
59516;SDS011;45342;42.662;27.718;2023-12-22T02:22:04;5.35;;;3.92;;
59516;SDS011;45342;42.662;27.718;2023-12-22T02:24:31;5.45;;;3.75;;
59516;SDS011;45342;42.662;27.718;2023-12-22T02:29:37;5.25;;;3.72;;
59516;SDS011;45342;42.662;27.718;2023-12-22T02:32:09;5.07;;;3.83;;
59516;SDS011;45342;42.662;27.718;2023-12-22T02:34:37;4.78;;;3.55;;
59516;SDS011;45342;42.662;27.718;2023-12-22T02:37:05;5.82;;;3.95;;
59516;SDS011;45342;42.662;27.718;2023-12-22T02:39:32;6.20;;;3.60;;
59516;SDS011;45342;42.662;27.718;2023-12-22T02:41:58;5.15;;;3.83;;
59516;SDS011;45342;42.662;27.718;2023-12-22T02:44:25;4.80;;;3.63;;
59516;SDS011;45342;42.662;27.718;2023-12-22T02:46:51;5.68;;;3.85;;
59516;SDS011;45342;42.662;27.718;2023-12-22T02:49:17;4.43;;;3.88;;
59516;SDS011;45342;42.662;27.718;2023-12-22T02:51:44;5.03;;;3.80;;
59516;SDS011;45342;42.662;27.718;2023-12-22T02:54:11;4.80;;;3.88;;
59516;SDS011;45342;42.662;27.718;2023-12-22T02:56:36;4.68;;;3.47;;
59516;SDS011;45342;42.662;27.718;2023-12-22T02:59:02;5.15;;;3.88;;
59516;SDS011;45342;42.662;27.718;2023-12-22T03:01:28;4.82;;;3.80;;
59516;SDS011;45342;42.662;27.718;2023-12-22T03:03:53;4.72;;;3.50;;
59516;SDS011;45342;42.662;27.718;2023-12-22T03:06:19;4.20;;;3.50;;
59516;SDS011;45342;42.662;27.718;2023-12-22T03:08:45;5.13;;;3.72;;
59516;SDS011;45342;42.662;27.718;2023-12-22T03:11:10;5.38;;;3.60;;
59516;SDS011;45342;42.662;27.718;2023-12-22T03:13:36;4.88;;;3.65;;
59516;SDS011;45342;42.662;27.718;2023-12-22T03:16:02;4.95;;;3.80;;
59516;SDS011;45342;42.662;27.718;2023-12-22T03:18:28;5.38;;;3.83;;
59516;SDS011;45342;42.662;27.718;2023-12-22T03:20:53;5.75;;;3.90;;
59516;SDS011;45342;42.662;27.718;2023-12-22T03:23:19;4.30;;;3.45;;
59516;SDS011;45342;42.662;27.718;2023-12-22T03:25:44;4.97;;;3.90;;
59516;SDS011;45342;42.662;27.718;2023-12-22T03:28:10;5.13;;;3.70;;
59516;SDS011;45342;42.662;27.718;2023-12-22T03:30:36;5.03;;;3.58;;
59516;SDS011;45342;42.662;27.718;2023-12-22T03:33:03;4.35;;;3.40;;
59516;SDS011;45342;42.662;27.718;2023-12-22T03:35:29;4.22;;;3.30;;
59516;SDS011;45342;42.662;27.718;2023-12-22T03:37:54;4.97;;;3.50;;
59516;SDS011;45342;42.662;27.718;2023-12-22T03:40:20;4.90;;;3.45;;
59516;SDS011;45342;42.662;27.718;2023-12-22T03:42:45;4.20;;;3.22;;
59516;SDS011;45342;42.662;27.718;2023-12-22T03:45:11;4.82;;;3.70;;
59516;SDS011;45342;42.662;27.718;2023-12-22T03:47:37;4.50;;;3.30;;
59516;SDS011;45342;42.662;27.718;2023-12-22T03:50:03;5.65;;;3.70;;
59516;SDS011;45342;42.662;27.718;2023-12-22T03:52:28;4.13;;;3.53;;
59516;SDS011;45342;42.662;27.718;2023-12-22T03:54:54;3.97;;;3.03;;
59516;SDS011;45342;42.662;27.718;2023-12-22T03:57:20;3.97;;;3.13;;
59516;SDS011;45342;42.662;27.718;2023-12-22T03:59:48;4.85;;;3.40;;
59516;SDS011;45342;42.662;27.718;2023-12-22T04:02:13;4.57;;;3.20;;
59516;SDS011;45342;42.662;27.718;2023-12-22T04:04:39;4.88;;;3.50;;
59516;SDS011;45342;42.662;27.718;2023-12-22T04:07:05;4.75;;;3.75;;
59516;SDS011;45342;42.662;27.718;2023-12-22T04:09:31;4.85;;;3.58;;
59516;SDS011;45342;42.662;27.718;2023-12-22T04:11:56;4.05;;;3.33;;
59516;SDS011;45342;42.662;27.718;2023-12-22T04:14:22;3.95;;;3.35;;
59516;SDS011;45342;42.662;27.718;2023-12-22T04:16:48;5.72;;;3.53;;
59516;SDS011;45342;42.662;27.718;2023-12-22T04:19:13;4.78;;;3.47;;
59516;SDS011;45342;42.662;27.718;2023-12-22T04:21:39;4.70;;;3.38;;
59516;SDS011;45342;42.662;27.718;2023-12-22T04:24:05;3.35;;;2.85;;
59516;SDS011;45342;42.662;27.718;2023-12-22T04:26:31;3.92;;;3.22;;
59516;SDS011;45342;42.662;27.718;2023-12-22T04:28:56;3.92;;;3.05;;
59516;SDS011;45342;42.662;27.718;2023-12-22T04:31:22;4.90;;;3.53;;
59516;SDS011;45342;42.662;27.718;2023-12-22T04:33:50;4.35;;;3.05;;
59516;SDS011;45342;42.662;27.718;2023-12-22T04:36:16;4.57;;;3.45;;
59516;SDS011;45342;42.662;27.718;2023-12-22T04:38:41;4.65;;;3.42;;
59516;SDS011;45342;42.662;27.718;2023-12-22T04:41:07;3.92;;;2.88;;
59516;SDS011;45342;42.662;27.718;2023-12-22T04:43:33;3.85;;;3.00;;
59516;SDS011;45342;42.662;27.718;2023-12-22T04:45:58;4.28;;;3.15;;
59516;SDS011;45342;42.662;27.718;2023-12-22T04:48:24;3.95;;;3.10;;
59516;SDS011;45342;42.662;27.718;2023-12-22T04:50:50;4.43;;;3.40;;
59516;SDS011;45342;42.662;27.718;2023-12-22T04:53:15;4.28;;;3.35;;
59516;SDS011;45342;42.662;27.718;2023-12-22T04:55:41;4.35;;;3.35;;
59516;SDS011;45342;42.662;27.718;2023-12-22T04:58:07;4.65;;;3.22;;
59516;SDS011;45342;42.662;27.718;2023-12-22T05:00:32;4.97;;;3.55;;
59516;SDS011;45342;42.662;27.718;2023-12-22T05:02:58;3.30;;;2.92;;
59516;SDS011;45342;42.662;27.718;2023-12-22T05:05:24;4.45;;;3.47;;
59516;SDS011;45342;42.662;27.718;2023-12-22T05:07:49;3.80;;;3.30;;
59516;SDS011;45342;42.662;27.718;2023-12-22T05:10:15;3.75;;;3.20;;
59516;SDS011;45342;42.662;27.718;2023-12-22T05:12:41;4.68;;;3.40;;
59516;SDS011;45342;42.662;27.718;2023-12-22T05:15:07;5.30;;;3.22;;
59516;SDS011;45342;42.662;27.718;2023-12-22T05:17:32;5.20;;;3.40;;
59516;SDS011;45342;42.662;27.718;2023-12-22T05:19:58;3.67;;;3.00;;
59516;SDS011;45342;42.662;27.718;2023-12-22T05:22:24;8.20;;;3.55;;
59516;SDS011;45342;42.662;27.718;2023-12-22T05:24:50;5.28;;;3.85;;
59516;SDS011;45342;42.662;27.718;2023-12-22T05:27:15;4.90;;;3.72;;
59516;SDS011;45342;42.662;27.718;2023-12-22T05:29:41;5.55;;;3.65;;
59516;SDS011;45342;42.662;27.718;2023-12-22T05:32:06;4.90;;;3.28;;
59516;SDS011;45342;42.662;27.718;2023-12-22T05:34:32;5.13;;;3.70;;
59516;SDS011;45342;42.662;27.718;2023-12-22T05:36:58;5.45;;;3.80;;
59516;SDS011;45342;42.662;27.718;2023-12-22T05:39:24;5.10;;;3.92;;
59516;SDS011;45342;42.662;27.718;2023-12-22T05:41:49;4.80;;;3.30;;
59516;SDS011;45342;42.662;27.718;2023-12-22T05:44:21;4.70;;;3.60;;
59516;SDS011;45342;42.662;27.718;2023-12-22T05:46:49;4.97;;;3.22;;
59516;SDS011;45342;42.662;27.718;2023-12-22T05:51:41;5.50;;;3.40;;
59516;SDS011;45342;42.662;27.718;2023-12-22T05:54:09;4.50;;;3.45;;
59516;SDS011;45342;42.662;27.718;2023-12-22T05:56:36;4.90;;;3.40;;
59516;SDS011;45342;42.662;27.718;2023-12-22T05:59:02;4.72;;;3.42;;
59516;SDS011;45342;42.662;27.718;2023-12-22T06:03:54;5.05;;;3.72;;
59516;SDS011;45342;42.662;27.718;2023-12-22T06:06:20;5.05;;;3.97;;
59516;SDS011;45342;42.662;27.718;2023-12-22T06:08:47;5.25;;;3.53;;
59516;SDS011;45342;42.662;27.718;2023-12-22T06:11:13;5.63;;;3.80;;
59516;SDS011;45342;42.662;27.718;2023-12-22T06:13:39;5.03;;;4.00;;
59516;SDS011;45342;42.662;27.718;2023-12-22T06:16:05;5.75;;;3.92;;
59516;SDS011;45342;42.662;27.718;2023-12-22T06:18:31;5.15;;;3.60;;
59516;SDS011;45342;42.662;27.718;2023-12-22T06:20:56;7.13;;;3.88;;
59516;SDS011;45342;42.662;27.718;2023-12-22T06:23:23;5.32;;;4.03;;
59516;SDS011;45342;42.662;27.718;2023-12-22T06:25:49;5.53;;;4.03;;
59516;SDS011;45342;42.662;27.718;2023-12-22T06:28:14;5.72;;;3.92;;
59516;SDS011;45342;42.662;27.718;2023-12-22T06:30:42;5.07;;;4.15;;
59516;SDS011;45342;42.662;27.718;2023-12-22T06:33:08;5.60;;;4.00;;
59516;SDS011;45342;42.662;27.718;2023-12-22T06:35:34;6.18;;;4.32;;
59516;SDS011;45342;42.662;27.718;2023-12-22T06:37:59;5.72;;;4.30;;
59516;SDS011;45342;42.662;27.718;2023-12-22T06:40:29;4.60;;;3.72;;
59516;SDS011;45342;42.662;27.718;2023-12-22T06:42:54;5.30;;;3.95;;
59516;SDS011;45342;42.662;27.718;2023-12-22T06:45:20;5.30;;;3.92;;
59516;SDS011;45342;42.662;27.718;2023-12-22T06:47:45;6.10;;;4.40;;
59516;SDS011;45342;42.662;27.718;2023-12-22T06:50:11;6.10;;;3.85;;
59516;SDS011;45342;42.662;27.718;2023-12-22T06:52:39;4.78;;;3.70;;
59516;SDS011;45342;42.662;27.718;2023-12-22T06:55:05;5.55;;;3.90;;
59516;SDS011;45342;42.662;27.718;2023-12-22T06:57:31;6.22;;;3.97;;
59516;SDS011;45342;42.662;27.718;2023-12-22T06:59:57;5.55;;;4.15;;
59516;SDS011;45342;42.662;27.718;2023-12-22T07:02:23;6.05;;;4.18;;
59516;SDS011;45342;42.662;27.718;2023-12-22T07:07:48;6.20;;;4.40;;
59516;SDS011;45342;42.662;27.718;2023-12-22T07:10:15;5.78;;;4.05;;
59516;SDS011;45342;42.662;27.718;2023-12-22T07:12:42;5.35;;;3.95;;
59516;SDS011;45342;42.662;27.718;2023-12-22T07:15:08;5.43;;;4.07;;
59516;SDS011;45342;42.662;27.718;2023-12-22T07:17:34;5.93;;;4.32;;
59516;SDS011;45342;42.662;27.718;2023-12-22T07:22:28;5.88;;;4.03;;
59516;SDS011;45342;42.662;27.718;2023-12-22T07:24:54;6.35;;;4.18;;
59516;SDS011;45342;42.662;27.718;2023-12-22T07:27:21;5.78;;;4.13;;
59516;SDS011;45342;42.662;27.718;2023-12-22T07:32:13;5.45;;;3.90;;
59516;SDS011;45342;42.662;27.718;2023-12-22T07:34:38;6.30;;;4.38;;
59516;SDS011;45342;42.662;27.718;2023-12-22T07:37:07;5.80;;;4.18;;
59516;SDS011;45342;42.662;27.718;2023-12-22T07:39:34;6.03;;;4.22;;
59516;SDS011;45342;42.662;27.718;2023-12-22T07:42:00;5.38;;;4.10;;
59516;SDS011;45342;42.662;27.718;2023-12-22T07:44:25;6.97;;;4.70;;
59516;SDS011;45342;42.662;27.718;2023-12-22T07:47:00;6.40;;;4.43;;
59516;SDS011;45342;42.662;27.718;2023-12-22T07:49:27;6.03;;;4.13;;
59516;SDS011;45342;42.662;27.718;2023-12-22T07:51:53;6.50;;;4.40;;
59516;SDS011;45342;42.662;27.718;2023-12-22T07:54:18;6.95;;;4.90;;
59516;SDS011;45342;42.662;27.718;2023-12-22T07:56:44;6.68;;;4.57;;
59516;SDS011;45342;42.662;27.718;2023-12-22T07:59:10;6.30;;;4.43;;
59516;SDS011;45342;42.662;27.718;2023-12-22T08:01:39;6.40;;;4.90;;
59516;SDS011;45342;42.662;27.718;2023-12-22T08:04:05;8.02;;;4.95;;
59516;SDS011;45342;42.662;27.718;2023-12-22T08:06:31;6.20;;;4.47;;
59516;SDS011;45342;42.662;27.718;2023-12-22T08:08:56;6.57;;;4.75;;
59516;SDS011;45342;42.662;27.718;2023-12-22T08:11:24;5.72;;;4.47;;
59516;SDS011;45342;42.662;27.718;2023-12-22T08:13:51;7.15;;;4.70;;
59516;SDS011;45342;42.662;27.718;2023-12-22T08:16:17;8.57;;;5.25;;
59516;SDS011;45342;42.662;27.718;2023-12-22T08:18:42;6.80;;;4.75;;
59516;SDS011;45342;42.662;27.718;2023-12-22T08:21:08;7.55;;;5.35;;
59516;SDS011;45342;42.662;27.718;2023-12-22T08:23:34;6.18;;;4.53;;
59516;SDS011;45342;42.662;27.718;2023-12-22T08:26:00;6.70;;;4.80;;
59516;SDS011;45342;42.662;27.718;2023-12-22T08:28:25;6.30;;;4.60;;
59516;SDS011;45342;42.662;27.718;2023-12-22T08:30:51;8.07;;;5.20;;
59516;SDS011;45342;42.662;27.718;2023-12-22T08:33:17;7.53;;;5.03;;
59516;SDS011;45342;42.662;27.718;2023-12-22T08:35:44;7.13;;;4.90;;
59516;SDS011;45342;42.662;27.718;2023-12-22T08:38:09;12.88;;;8.02;;
59516;SDS011;45342;42.662;27.718;2023-12-22T08:40:35;113.70;;;47.83;;
59516;SDS011;45342;42.662;27.718;2023-12-22T08:43:01;60.63;;;27.08;;
59516;SDS011;45342;42.662;27.718;2023-12-22T08:45:27;56.25;;;26.73;;
59516;SDS011;45342;42.662;27.718;2023-12-22T08:47:56;62.47;;;28.38;;
59516;SDS011;45342;42.662;27.718;2023-12-22T08:52:47;56.28;;;26.80;;
59516;SDS011;45342;42.662;27.718;2023-12-22T08:55:13;56.83;;;26.10;;
59516;SDS011;45342;42.662;27.718;2023-12-22T08:57:41;53.55;;;25.42;;
59516;SDS011;45342;42.662;27.718;2023-12-22T09:00:07;52.65;;;23.70;;
59516;SDS011;45342;42.662;27.718;2023-12-22T09:02:34;51.35;;;23.67;;
59516;SDS011;45342;42.662;27.718;2023-12-22T09:05:00;44.70;;;22.00;;
59516;SDS011;45342;42.662;27.718;2023-12-22T09:07:30;48.35;;;22.25;;
59516;SDS011;45342;42.662;27.718;2023-12-22T09:09:56;42.88;;;21.58;;
59516;SDS011;45342;42.662;27.718;2023-12-22T09:12:21;38.95;;;18.88;;
59516;SDS011;45342;42.662;27.718;2023-12-22T09:14:49;39.75;;;20.40;;
59516;SDS011;45342;42.662;27.718;2023-12-22T09:17:15;38.70;;;19.45;;
59516;SDS011;45342;42.662;27.718;2023-12-22T09:25:05;35.72;;;17.02;;
59516;SDS011;45342;42.662;27.718;2023-12-22T09:27:31;31.60;;;15.82;;
59516;SDS011;45342;42.662;27.718;2023-12-22T09:29:57;33.67;;;16.38;;
59516;SDS011;45342;42.662;27.718;2023-12-22T09:32:22;33.45;;;15.88;;
59516;SDS011;45342;42.662;27.718;2023-12-22T09:34:48;31.67;;;15.73;;
59516;SDS011;45342;42.662;27.718;2023-12-22T09:37:34;27.30;;;14.15;;
59516;SDS011;45342;42.662;27.718;2023-12-22T09:40:02;27.23;;;14.25;;
59516;SDS011;45342;42.662;27.718;2023-12-22T09:42:28;27.13;;;14.27;;
59516;SDS011;45342;42.662;27.718;2023-12-22T09:44:55;23.88;;;13.50;;
59516;SDS011;45342;42.662;27.718;2023-12-22T09:47:26;28.42;;;14.23;;
59516;SDS011;45342;42.662;27.718;2023-12-22T09:49:54;23.95;;;12.35;;
59516;SDS011;45342;42.662;27.718;2023-12-22T09:52:23;25.70;;;13.20;;
59516;SDS011;45342;42.662;27.718;2023-12-22T09:54:49;23.85;;;12.88;;
59516;SDS011;45342;42.662;27.718;2023-12-22T09:57:14;20.05;;;11.88;;
59516;SDS011;45342;42.662;27.718;2023-12-22T09:59:41;23.83;;;12.27;;
59516;SDS011;45342;42.662;27.718;2023-12-22T10:02:07;20.50;;;11.70;;
59516;SDS011;45342;42.662;27.718;2023-12-22T10:04:56;23.98;;;11.80;;
59516;SDS011;45342;42.662;27.718;2023-12-22T10:07:21;22.50;;;11.65;;
59516;SDS011;45342;42.662;27.718;2023-12-22T10:09:47;19.77;;;10.82;;
59516;SDS011;45342;42.662;27.718;2023-12-22T10:12:13;19.23;;;11.25;;
59516;SDS011;45342;42.662;27.718;2023-12-22T10:14:40;19.58;;;10.98;;
59516;SDS011;45342;42.662;27.718;2023-12-22T10:17:07;18.52;;;11.05;;
59516;SDS011;45342;42.662;27.718;2023-12-22T10:19:32;18.83;;;11.10;;
59516;SDS011;45342;42.662;27.718;2023-12-22T10:21:58;17.83;;;10.55;;
59516;SDS011;45342;42.662;27.718;2023-12-22T10:24:43;19.27;;;10.30;;
59516;SDS011;45342;42.662;27.718;2023-12-22T10:27:17;15.13;;;9.25;;
59516;SDS011;45342;42.662;27.718;2023-12-22T10:29:51;17.33;;;10.05;;
59516;SDS011;45342;42.662;27.718;2023-12-22T10:32:19;17.00;;;9.23;;
59516;SDS011;45342;42.662;27.718;2023-12-22T10:34:46;14.75;;;8.55;;
59516;SDS011;45342;42.662;27.718;2023-12-22T10:39:40;16.17;;;9.43;;
59516;SDS011;45342;42.662;27.718;2023-12-22T10:42:06;15.43;;;9.18;;
59516;SDS011;45342;42.662;27.718;2023-12-22T10:44:32;13.95;;;9.00;;
59516;SDS011;45342;42.662;27.718;2023-12-22T10:46:58;14.95;;;8.43;;
59516;SDS011;45342;42.662;27.718;2023-12-22T10:49:26;15.63;;;9.00;;
59516;SDS011;45342;42.662;27.718;2023-12-22T10:51:52;16.88;;;9.38;;
59516;SDS011;45342;42.662;27.718;2023-12-22T10:54:18;12.98;;;8.05;;
59516;SDS011;45342;42.662;27.718;2023-12-22T10:56:44;13.25;;;8.23;;
59516;SDS011;45342;42.662;27.718;2023-12-22T10:59:10;14.23;;;8.68;;
59516;SDS011;45342;42.662;27.718;2023-12-22T11:01:36;14.48;;;9.13;;
59516;SDS011;45342;42.662;27.718;2023-12-22T11:04:06;13.35;;;8.07;;
59516;SDS011;45342;42.662;27.718;2023-12-22T11:06:37;13.25;;;8.13;;
59516;SDS011;45342;42.662;27.718;2023-12-22T11:09:07;14.93;;;8.25;;
59516;SDS011;45342;42.662;27.718;2023-12-22T11:11:37;13.80;;;8.23;;
59516;SDS011;45342;42.662;27.718;2023-12-22T11:14:04;13.07;;;8.00;;
59516;SDS011;45342;42.662;27.718;2023-12-22T11:16:32;13.68;;;8.15;;
59516;SDS011;45342;42.662;27.718;2023-12-22T11:18:58;13.07;;;8.02;;
59516;SDS011;45342;42.662;27.718;2023-12-22T11:21:25;14.18;;;8.00;;
59516;SDS011;45342;42.662;27.718;2023-12-22T11:23:53;14.30;;;8.07;;
59516;SDS011;45342;42.662;27.718;2023-12-22T11:26:23;12.52;;;7.72;;
59516;SDS011;45342;42.662;27.718;2023-12-22T11:28:50;11.40;;;7.50;;
59516;SDS011;45342;42.662;27.718;2023-12-22T11:31:17;11.60;;;7.60;;
59516;SDS011;45342;42.662;27.718;2023-12-22T11:33:47;11.93;;;7.60;;
59516;SDS011;45342;42.662;27.718;2023-12-22T11:36:14;11.45;;;7.32;;
59516;SDS011;45342;42.662;27.718;2023-12-22T11:38:41;12.00;;;7.57;;
59516;SDS011;45342;42.662;27.718;2023-12-22T11:41:09;13.32;;;7.63;;
59516;SDS011;45342;42.662;27.718;2023-12-22T11:43:37;11.65;;;7.50;;
59516;SDS011;45342;42.662;27.718;2023-12-22T11:46:03;12.05;;;7.55;;
59516;SDS011;45342;42.662;27.718;2023-12-22T11:48:29;11.38;;;7.45;;
59516;SDS011;45342;42.662;27.718;2023-12-22T11:50:56;12.13;;;7.05;;
59516;SDS011;45342;42.662;27.718;2023-12-22T11:53:31;11.88;;;7.20;;
59516;SDS011;45342;42.662;27.718;2023-12-22T11:56:06;11.25;;;6.95;;
59516;SDS011;45342;42.662;27.718;2023-12-22T11:58:39;12.38;;;7.82;;
59516;SDS011;45342;42.662;27.718;2023-12-22T12:01:07;12.35;;;7.50;;
59516;SDS011;45342;42.662;27.718;2023-12-22T12:03:37;12.75;;;7.72;;
59516;SDS011;45342;42.662;27.718;2023-12-22T12:08:41;11.82;;;6.97;;
59516;SDS011;45342;42.662;27.718;2023-12-22T12:11:11;10.82;;;7.38;;
59516;SDS011;45342;42.662;27.718;2023-12-22T12:13:45;11.57;;;6.80;;
59516;SDS011;45342;42.662;27.718;2023-12-22T12:16:15;11.07;;;7.13;;
59516;SDS011;45342;42.662;27.718;2023-12-22T12:21:52;11.73;;;6.85;;
59516;SDS011;45342;42.662;27.718;2023-12-22T12:24:23;9.90;;;6.72;;
59516;SDS011;45342;42.662;27.718;2023-12-22T12:26:49;14.68;;;6.85;;
59516;SDS011;45342;42.662;27.718;2023-12-22T12:29:15;9.88;;;6.38;;
59516;SDS011;45342;42.662;27.718;2023-12-22T12:31:41;11.25;;;6.57;;
59516;SDS011;45342;42.662;27.718;2023-12-22T12:34:07;10.40;;;6.75;;
59516;SDS011;45342;42.662;27.718;2023-12-22T12:36:36;10.75;;;7.03;;
59516;SDS011;45342;42.662;27.718;2023-12-22T12:39:08;10.52;;;6.93;;
59516;SDS011;45342;42.662;27.718;2023-12-22T12:41:40;12.75;;;7.35;;
59516;SDS011;45342;42.662;27.718;2023-12-22T12:47:37;10.60;;;6.80;;
59516;SDS011;45342;42.662;27.718;2023-12-22T12:51:01;12.10;;;7.20;;
59516;SDS011;45342;42.662;27.718;2023-12-22T13:07:10;11.73;;;7.05;;
59516;SDS011;45342;42.662;27.718;2023-12-22T13:09:50;10.63;;;6.80;;
59516;SDS011;45342;42.662;27.718;2023-12-22T13:22:41;12.93;;;7.68;;
59516;SDS011;45342;42.662;27.718;2023-12-22T13:28:13;14.70;;;8.23;;
59516;SDS011;45342;42.662;27.718;2023-12-22T13:30:38;15.50;;;8.05;;
59516;SDS011;45342;42.662;27.718;2023-12-22T13:33:07;14.32;;;7.47;;
59516;SDS011;45342;42.662;27.718;2023-12-22T13:35:33;13.65;;;8.20;;
59516;SDS011;45342;42.662;27.718;2023-12-22T13:38:01;13.82;;;8.23;;
59516;SDS011;45342;42.662;27.718;2023-12-22T13:40:30;14.27;;;7.95;;
59516;SDS011;45342;42.662;27.718;2023-12-22T13:42:57;15.63;;;7.93;;
59516;SDS011;45342;42.662;27.718;2023-12-22T13:47:49;13.00;;;7.05;;
59516;SDS011;45342;42.662;27.718;2023-12-22T13:50:15;16.25;;;7.97;;
59516;SDS011;45342;42.662;27.718;2023-12-22T13:52:41;17.85;;;8.43;;
59516;SDS011;45342;42.662;27.718;2023-12-22T13:55:12;13.35;;;7.10;;
59516;SDS011;45342;42.662;27.718;2023-12-22T13:57:38;14.80;;;7.97;;
59516;SDS011;45342;42.662;27.718;2023-12-22T14:02:47;17.98;;;7.97;;
59516;SDS011;45342;42.662;27.718;2023-12-22T14:05:16;14.90;;;8.00;;
59516;SDS011;45342;42.662;27.718;2023-12-22T14:07:45;14.23;;;7.88;;
59516;SDS011;45342;42.662;27.718;2023-12-22T14:10:12;14.95;;;7.38;;
59516;SDS011;45342;42.662;27.718;2023-12-22T14:12:38;20.98;;;8.10;;
59516;SDS011;45342;42.662;27.718;2023-12-22T14:15:09;18.73;;;8.27;;
59516;SDS011;45342;42.662;27.718;2023-12-22T14:17:38;17.30;;;8.35;;
59516;SDS011;45342;42.662;27.718;2023-12-22T14:20:04;18.63;;;8.63;;
59516;SDS011;45342;42.662;27.718;2023-12-22T14:22:31;19.38;;;8.57;;
59516;SDS011;45342;42.662;27.718;2023-12-22T14:24:57;16.77;;;8.20;;
59516;SDS011;45342;42.662;27.718;2023-12-22T14:27:23;13.98;;;8.40;;
59516;SDS011;45342;42.662;27.718;2023-12-22T14:29:49;12.48;;;8.00;;
59516;SDS011;45342;42.662;27.718;2023-12-22T14:32:14;13.98;;;8.30;;
59516;SDS011;45342;42.662;27.718;2023-12-22T14:34:43;15.63;;;8.30;;
59516;SDS011;45342;42.662;27.718;2023-12-22T14:37:08;15.93;;;8.20;;
59516;SDS011;45342;42.662;27.718;2023-12-22T14:39:34;15.98;;;8.48;;
59516;SDS011;45342;42.662;27.718;2023-12-22T14:44:28;19.20;;;8.18;;
59516;SDS011;45342;42.662;27.718;2023-12-22T14:46:54;16.08;;;8.35;;
59516;SDS011;45342;42.662;27.718;2023-12-22T14:49:20;18.17;;;8.18;;
59516;SDS011;45342;42.662;27.718;2023-12-22T14:51:46;22.25;;;9.63;;
59516;SDS011;45342;42.662;27.718;2023-12-22T14:54:17;22.25;;;8.90;;
59516;SDS011;45342;42.662;27.718;2023-12-22T14:59:11;21.23;;;9.50;;
59516;SDS011;45342;42.662;27.718;2023-12-22T15:01:39;22.33;;;8.88;;
59516;SDS011;45342;42.662;27.718;2023-12-22T15:04:05;22.42;;;9.70;;
59516;SDS011;45342;42.662;27.718;2023-12-22T15:08:57;21.17;;;9.57;;
59516;SDS011;45342;42.662;27.718;2023-12-22T15:11:25;26.27;;;9.73;;
59516;SDS011;45342;42.662;27.718;2023-12-22T15:13:52;20.45;;;9.80;;
59516;SDS011;45342;42.662;27.718;2023-12-22T15:16:17;19.25;;;9.15;;
59516;SDS011;45342;42.662;27.718;2023-12-22T15:18:43;21.48;;;10.20;;
59516;SDS011;45342;42.662;27.718;2023-12-22T15:21:09;18.25;;;9.10;;
59516;SDS011;45342;42.662;27.718;2023-12-22T15:23:35;21.42;;;10.32;;
59516;SDS011;45342;42.662;27.718;2023-12-22T15:26:00;24.52;;;10.25;;
59516;SDS011;45342;42.662;27.718;2023-12-22T15:28:26;22.55;;;10.23;;
59516;SDS011;45342;42.662;27.718;2023-12-22T15:30:52;21.08;;;10.13;;
59516;SDS011;45342;42.662;27.718;2023-12-22T15:33:17;20.70;;;10.57;;
59516;SDS011;45342;42.662;27.718;2023-12-22T15:35:43;19.98;;;10.02;;
59516;SDS011;45342;42.662;27.718;2023-12-22T15:38:09;24.63;;;11.13;;
59516;SDS011;45342;42.662;27.718;2023-12-22T15:40:36;22.33;;;11.30;;
59516;SDS011;45342;42.662;27.718;2023-12-22T15:43:02;21.23;;;11.13;;